Time;durP1;ratioP1;P1;durP2;ratioP2;P2;SDS_P1;SDS_P2;PMS_P1;PMS_P2;Temp;Humidity;BMP_temperature;BMP_pressure;BME280_temperature;BME280_humidity;BME280_pressure;Samples;Min_cycle;Max_cycle;Signal;HPM_P1;HPM_P2
2024/03/14 00:02:31;;;;;;;;;;;;;;;;;;137353;1270;22642;-80
2024/03/14 00:05:32;;;;;;;;;;;;;;;;;;137644;1270;22536;-81
2024/03/14 00:08:33;;;;;;;;;;;;;;;;;;137595;1270;22530;-77
2024/03/14 00:11:34;;;;;;;;;;;;;;;;;;137207;1270;22491;-79
2024/03/14 00:14:35;;;;;;;;;;;;;;;;;;137232;1270;22531;-79
2024/03/14 00:17:37;;;;;;;;;;;;;;;;;;137733;1270;23109;-79
2024/03/14 00:20:42;;;;;;;;;;;;;;;;;;137165;1271;22543;-79
2024/03/14 00:23:44;;;;;;;;;;;;;;;;;;137210;1271;22514;-79
2024/03/14 00:26:45;;;;;;;;;;;;;;;;;;137379;1270;22684;-80
2024/03/14 00:29:47;;;;;;;;;;;;;;;;;;137348;1270;22835;-78
2024/03/14 00:32:49;;;;;;;;;;;;;;;;;;137231;1270;22536;-77
2024/03/14 00:35:50;;;;;;;;;;;;;;;;;;137556;1270;22555;-78
2024/03/14 00:38:51;;;;;;;;;;;;;;;;;;137564;1270;22511;-77
2024/03/14 00:41:52;;;;;;;;;;;;;;;;;;137263;1271;22528;-78
2024/03/14 00:44:53;;;;;;;;;;;;;;;;;;137309;1270;22540;-79
2024/03/14 00:47:56;;;;;;;;;;;;;;;;;;137793;1270;22546;-79
2024/03/14 00:50:57;;;;;;;;;;;;;;;;;;137231;1270;22486;-78
2024/03/14 00:53:58;;;;;;;;;;;;;;;;;;137271;1268;22548;-79
2024/03/14 00:57:00;;;;;;;;;;;;;;;;;;137938;1268;22299;-78
2024/03/14 01:00:09;;;;;;;;;;;;;;;;;;137215;1270;22495;-78
2024/03/14 01:03:11;;;;;;;;;;;;;;;;;;137187;1270;22569;-78
2024/03/14 01:06:12;;;;;;;;;;;;;;;;;;137624;1270;24181;-79
2024/03/14 01:09:13;;;;;;;;;;;;;;;;;;137635;1270;22495;-80
2024/03/14 01:12:16;;;;;;;;;;;;;;;;;;137230;1270;22496;-79
2024/03/14 01:15:18;;;;;;;;;;;;;;;;;;137207;1270;22505;-84
2024/03/14 01:18:20;;;;;;;;;;;;;;;;;;137761;1270;23069;-80
2024/03/14 01:21:21;;;;;;;;;;;;;;;;;;137327;1270;22985;-80
2024/03/14 01:24:22;;;;;;;;;;;;;;;;;;137362;1270;22913;-80
2024/03/14 01:27:23;;;;;;;;;;;;;;;;;;137841;1270;22338;-80
2024/03/14 01:30:25;;;;;;;;;;;;;;;;;;137420;1270;22943;-79
2024/03/14 01:33:26;;;;;;;;;;;;;;;;;;137723;1271;22491;-78
2024/03/14 01:36:27;;;;;;;;;;;;;;;;;;137728;1271;22511;-78
2024/03/14 01:39:28;;;;;;;;;;;;;;;;;;137378;1270;22505;-78
2024/03/14 01:42:29;;;;;;;;;;;;;;;;;;137377;1271;22499;-78
2024/03/14 01:45:30;;;;;;;;;;;;;;;;;;137818;1270;22488;-78
2024/03/14 01:48:31;;;;;;;;;;;;;;;;;;137543;1270;22497;-81
2024/03/14 01:51:34;;;;;;;;;;;;;;;;;;137217;1270;22504;-78
2024/03/14 01:54:36;;;;;;;;;;;;;;;;;;137165;1271;22513;-79
2024/03/14 01:57:37;;;;;;;;;;;;;;;;;;137840;1266;22505;-78
2024/03/14 02:00:38;;;;;;;;;;;;;;;;;;137296;1270;22515;-78
2024/03/14 02:03:40;;;;;;;;;;;;;;;;;;137143;1270;23055;-78
2024/03/14 02:06:41;;;;;;;;;;;;;;;;;;137772;1271;22504;-79
2024/03/14 02:09:43;;;;;;;;;;;;;;;;;;137302;1270;22506;-79
2024/03/14 02:12:45;;;;;;;;;;;;;;;;;;137262;1262;22603;-78
2024/03/14 02:15:46;;;;;;;;;;;;;;;;;;137638;1270;22538;-79
2024/03/14 02:18:47;;;;;;;;;;;;;;;;;;137621;1271;22499;-78
2024/03/14 02:21:48;;;;;;;;;;;;;;;;;;137326;1270;255079;-78
2024/03/14 02:24:51;;;;;;;;;;;;;;;;;;137520;1271;22544;-78
2024/03/14 02:27:52;;;;;;;;;;;;;;;;;;137941;1271;22790;-78
2024/03/14 02:30:53;;;;;;;;;;;;;;;;;;137245;1268;22513;-79
2024/03/14 02:33:54;;;;;;;;;;;;;;;;;;137569;1271;22524;-77
2024/03/14 02:36:56;;;;;;;;;;;;;;;;;;137732;1270;22544;-78
2024/03/14 02:39:57;;;;;;;;;;;;;;;;;;137092;1271;22501;-77
2024/03/14 02:42:59;;;;;;;;;;;;;;;;;;137730;1270;22886;-78
2024/03/14 02:46:00;;;;;;;;;;;;;;;;;;137821;1270;22508;-78
2024/03/14 02:49:01;;;;;;;;;;;;;;;;;;137273;1271;22919;-79
2024/03/14 02:52:02;;;;;;;;;;;;;;;;;;137252;1270;22519;-77
2024/03/14 02:55:05;;;;;;;;;;;;;;;;;;137506;1269;22501;-81
2024/03/14 02:58:06;;;;;;;;;;;;;;;;;;137413;1270;22599;-79
2024/03/14 03:01:08;;;;;;;;;;;;;;;;;;137234;1271;22555;-80
2024/03/14 03:04:09;;;;;;;;;;;;;;;;;;137321;1271;22537;-80
2024/03/14 03:07:10;;;;;;;;;;;;;;;;;;137807;1271;23219;-79
2024/03/14 03:10:12;;;;;;;;;;;;;;;;;;137350;1270;22497;-79
2024/03/14 03:13:14;;;;;;;;;;;;;;;;;;137288;1270;22539;-80
2024/03/14 03:16:15;;;;;;;;;;;;;;;;;;137770;1271;22504;-79
2024/03/14 03:19:17;;;;;;;;;;;;;;;;;;137878;1271;22507;-79
2024/03/14 03:22:18;;;;;;;;;;;;;;;;;;137415;1271;22526;-79
2024/03/14 03:25:19;;;;;;;;;;;;;;;;;;137877;1270;22292;-80
2024/03/14 03:28:22;;;;;;;;;;;;;;;;;;137617;1270;22530;-79
2024/03/14 03:31:23;;;;;;;;;;;;;;;;;;137577;1271;22898;-79
2024/03/14 03:34:24;;;;;;;;;;;;;;;;;;137742;1271;22512;-79
2024/03/14 03:37:28;;;;;;;;;;;;;;;;;;137585;1270;23235;-79
2024/03/14 03:40:34;;;;;;;;;;;;;;;;;;137537;1270;22513;-79
2024/03/14 03:43:36;;;;;;;;;;;;;;;;;;137747;1270;22552;-79
2024/03/14 03:46:38;;;;;;;;;;;;;;;;;;137753;1271;22519;-79
2024/03/14 03:49:40;;;;;;;;;;;;;;;;;;137622;1270;22989;-80
2024/03/14 03:52:41;;;;;;;;;;;;;;;;;;137886;1271;22354;-79
2024/03/14 03:55:43;;;;;;;;;;;;;;;;;;137843;1271;22306;-80
2024/03/14 03:58:44;;;;;;;;;;;;;;;;;;137829;1259;23014;-79
2024/03/14 04:01:46;;;;;;;;;;;;;;;;;;137875;1270;22324;-79
2024/03/14 04:04:47;;;;;;;;;;;;;;;;;;137701;1270;22541;-79
2024/03/14 04:07:49;;;;;;;;;;;;;;;;;;137597;1270;22470;-79
2024/03/14 04:10:50;;;;;;;;;;;;;;;;;;137643;1269;23428;-79
2024/03/14 04:13:53;;;;;;;;;;;;;;;;;;137422;1271;22477;-79
2024/03/14 04:16:55;;;;;;;;;;;;;;;;;;137608;1270;22508;-79
2024/03/14 04:19:56;;;;;;;;;;;;;;;;;;137859;1270;22403;-80
2024/03/14 04:22:57;;;;;;;;;;;;;;;;;;137207;1269;22579;-79
2024/03/14 04:25:58;;;;;;;;;;;;;;;;;;137826;1270;22544;-79
2024/03/14 04:28:59;;;;;;;;;;;;;;;;;;137884;1271;22467;-81
2024/03/14 04:32:00;;;;;;;;;;;;;;;;;;137833;1271;22325;-79
2024/03/14 04:35:01;;;;;;;;;;;;;;;;;;137822;1270;22281;-80
2024/03/14 04:38:03;;;;;;;;;;;;;;;;;;137818;1270;22328;-79
2024/03/14 04:41:14;;;;;;;;;;;;;;;;;;137846;1271;22364;-80
2024/03/14 04:44:15;;;;;;;;;;;;;;;;;;137864;1271;22328;-81
2024/03/14 04:47:16;;;;;;;;;;;;;;;;;;137835;1271;22712;-81
2024/03/14 04:50:18;;;;;;;;;;;;;;;;;;137832;1268;22715;-81
2024/03/14 04:53:20;;;;;;;;;;;;;;;;;;137577;1270;22553;-82
2024/03/14 04:56:21;;;;;;;;;;;;;;;;;;137667;1271;22941;-81
2024/03/14 04:59:22;;;;;;;;;;;;;;;;;;137300;1270;22501;-80
2024/03/14 05:02:23;;;;;;;;;;;;;;;;;;137528;1271;22543;-81
2024/03/14 05:05:25;;;;;;;;;;;;;;;;;;137820;1271;23027;-81
2024/03/14 05:08:26;;;;;;;;;;;;;;;;;;137477;1270;22900;-81
2024/03/14 05:11:27;;;;;;;;;;;;;;;;;;137723;1271;22540;-81
2024/03/14 05:14:31;;;;;;;;;;;;;;;;;;137963;1271;22286;-81
2024/03/14 05:17:32;;;;;;;;;;;;;;;;;;137997;1270;22348;-81
2024/03/14 05:20:33;;;;;;;;;;;;;;;;;;137778;1270;23137;-80
2024/03/14 05:23:34;;;;;;;;;;;;;;;;;;137797;1271;22607;-81
2024/03/14 05:26:36;;;;;;;;;;;;;;;;;;137860;1270;22527;-79
2024/03/14 05:29:37;;;;;;;;;;;;;;;;;;137893;1271;22458;-81
2024/03/14 05:32:38;;;;;;;;;;;;;;;;;;137846;1270;22264;-81
2024/03/14 05:35:40;;;;;;;;;;;;;;;;;;137773;1271;22301;-81
2024/03/14 05:38:41;;;;;;;;;;;;;;;;;;137797;1270;22289;-81
2024/03/14 05:41:42;;;;;;;;;;;;;;;;;;137793;1271;22315;-81
2024/03/14 05:44:44;;;;;;;;;;;;;;;;;;137800;1270;22340;-81
2024/03/14 05:47:45;;;;;;;;;;;;;;;;;;137782;1271;22325;-81
2024/03/14 05:50:46;;;;;;;;;;;;;;;;;;137775;1270;23172;-81
2024/03/14 05:53:48;;;;;;;;;;;;;;;;;;137640;1270;22532;-82
2024/03/14 05:56:49;;;;;;;;;;;;;;;;;;137481;1270;22489;-82
2024/03/14 05:59:51;;;;;;;;;;;;;;;;;;137827;1270;23153;-81
2024/03/14 06:02:52;;;;;;;;;;;;;;;;;;137627;1271;23011;-81
2024/03/14 06:05:54;;;;;;;;;;;;;;;;;;137855;1270;22297;-81
2024/03/14 06:08:55;;;;;;;;;;;;;;;;;;137265;1270;22557;-82
2024/03/14 06:11:57;;;;;;;;;;;;;;;;;;137781;1270;22797;-82
2024/03/14 06:14:58;;;;;;;;;;;;;;;;;;137851;1271;22334;-82
2024/03/14 06:17:59;;;;;;;;;;;;;;;;;;137675;1270;22661;-81
2024/03/14 06:21:01;;;;;;;;;;;;;;;;;;137456;1270;22469;-81
2024/03/14 06:24:02;;;;;;;;;;;;;;;;;;137832;1271;22741;-81
2024/03/14 06:27:03;;;;;;;;;;;;;;;;;;137814;1271;22272;-82
2024/03/14 06:30:04;;;;;;;;;;;;;;;;;;137637;1270;22517;-82
2024/03/14 06:33:06;;;;;;;;;;;;;;;;;;137827;1271;22260;-80
2024/03/14 06:36:08;;;;;;;;;;;;;;;;;;137572;1270;22505;-83
2024/03/14 06:39:11;;;;;;;;;;;;;;;;;;137320;1270;22490;-82
2024/03/14 06:42:12;;;;;;;;;;;;;;;;;;137602;1270;25306;-81
2024/03/14 06:45:13;;;;;;;;;;;;;;;;;;137455;1270;22488;-81
2024/03/14 06:48:14;;;;;;;;;;;;;;;;;;137785;1270;22805;-80
2024/03/14 06:51:15;;;;;;;;;;;;;;;;;;137797;1251;22274;-81
2024/03/14 06:54:18;;;;;;;;;;;;;;;;;;137777;1270;22475;-79
2024/03/14 06:57:20;;;;;;;;;;;;;;;;;;137847;1271;22361;-81
2024/03/14 07:00:24;;;;;;;;;;;;;;;;;;137782;1270;22919;-82
2024/03/14 07:03:27;;;;;;;;;;;;;;;;;;137834;1270;22337;-82
2024/03/14 07:06:28;;;;;;;;;;;;;;;;;;137831;1271;22280;-82
2024/03/14 07:09:30;;;;;;;;;;;;;;;;;;136873;1258;22636;-83
2024/03/14 07:12:35;;;;;;;;;;;;;;;;;;137113;1270;25284;-83
2024/03/14 07:15:36;;;;;;;;;;;;;;;;;;137832;1270;22488;-82
2024/03/14 07:18:38;;;;;;;;;;;;;;;;;;137831;1271;22310;-80
2024/03/14 07:21:39;;;;;;;;;;;;;;;;;;137720;1270;24247;-79
2024/03/14 07:24:40;;;;;;;;;;;;;;;;;;137741;1270;22971;-83
2024/03/14 07:27:43;;;;;;;;;;;;;;;;;;137015;1270;22509;-81
2024/03/14 07:30:44;;;;;;;;;;;;;;;;;;137508;1270;22490;-81
2024/03/14 07:33:46;;;;;;;;;;;;;;;;;;137600;1270;22522;-82
2024/03/14 07:36:47;;;;;;;;;;;;;;;;;;137397;1270;22566;-80
2024/03/14 07:39:48;;;;;;;;;;;;;;;;;;137449;1270;22924;-81
2024/03/14 07:42:50;;;;;;;;;;;;;;;;;;137808;1270;22317;-82
2024/03/14 07:45:52;;;;;;;;;;;;;;;;;;137673;1267;22489;-80
2024/03/14 07:48:53;;;;;;;;;;;;;;;;;;137788;1266;22289;-80
2024/03/14 07:51:55;;;;;;;;;;;;;;;;;;137177;1270;22536;-81
2024/03/14 07:54:56;;;;;;;;;;;;;;;;;;137797;1270;22281;-83
2024/03/14 07:57:57;;;;;;;;;;;;;;;;;;137785;1270;22785;-82
2024/03/14 08:00:59;;;;;;;;;;;;;;;;;;137321;1270;22977;-82
2024/03/14 08:04:01;;;;;;;;;;;;;;;;;;137707;1267;22520;-82
2024/03/14 08:07:10;;;;;;;;;;;;;;;;;;137690;1270;22612;-80
2024/03/14 08:10:11;;;;;;;;;;;;;;;;;;137400;1270;22493;-80
2024/03/14 08:13:17;;;;;;;;;;;;;;;;;;137603;1270;22573;-82
2024/03/14 08:16:22;;;;;;;;;;;;;;;;;;137738;1270;22517;-82
2024/03/14 08:19:23;;;;;;;;;;;;;;;;;;137406;1270;22561;-81
2024/03/14 08:22:24;;;;;;;;;;;;;;;;;;137581;1270;25207;-81
2024/03/14 08:25:26;;;;;;;;;;;;;;;;;;137487;1273;22507;-81
2024/03/14 08:28:27;;;;;;;;;;;;;;;;;;137094;1274;22527;-81
2024/03/14 08:31:28;;;;;;;;;;;;;;;;;;137514;1274;22493;-78
2024/03/14 08:34:29;;;;;;;;;;;;;;;;;;137492;1274;22362;-84
2024/03/14 08:37:31;;;;;;;;;;;;;;;;;;137219;1274;22505;-81
2024/03/14 08:40:35;;;;;;;;;;;;;;;;;;137044;1275;22573;-81
2024/03/14 08:43:36;;;;;;;;;;;;;;;;;;137211;1274;22563;-83
2024/03/14 08:46:37;;;;;;;;;;;;;;;;;;137206;1275;22479;-83
2024/03/14 08:49:38;;;;;;;;;;;;;;;;;;136746;1257;22580;-83
2024/03/14 08:52:39;;;;;;;;;;;;;;;;;;137829;1270;22369;-83
2024/03/14 08:55:50;;;;;;;;;;;;;;;;;;137803;1270;22896;-82
2024/03/14 08:58:56;;;;;;;;;;;;;;;;;;137783;1270;22471;-81
2024/03/14 09:01:57;;;;;;;;;;;;;;;;;;137460;1270;22542;-81
2024/03/14 09:04:59;;;;;;;;;;;;;;;;;;137625;1270;22469;-83
2024/03/14 09:08:00;;;;;;;;;;;;;;;;;;137727;1270;22321;-82
2024/03/14 09:11:03;;;;;;;;;;;;;;;;;;137823;1266;22358;-82
2024/03/14 09:14:05;;;;;;;;;;;;;;;;;;137812;1267;22398;-82
2024/03/14 09:17:06;;;;;;;;;;;;;;;;;;137806;1270;22274;-81
2024/03/14 09:20:08;;;;;;;;;;;;;;;;;;137449;1270;22521;-83
2024/03/14 09:23:15;;;;;;;;;;;;;;;;;;137814;1266;22275;-83
2024/03/14 09:26:17;;;;;;;;;;;;;;;;;;137802;1270;22337;-81
2024/03/14 09:29:21;;;;;;;;;;;;;;;;;;137796;1270;22878;-83
2024/03/14 09:32:23;;;;;;;;;;;;;;;;;;137417;1270;22644;-81
2024/03/14 09:35:25;;;;;;;;;;;;;;;;;;137708;1270;22582;-83
2024/03/14 09:38:27;;;;;;;;;;;;;;;;;;137482;1270;22539;-83
2024/03/14 09:41:30;;;;;;;;;;;;;;;;;;137130;1270;22525;-83
2024/03/14 09:44:32;;;;;;;;;;;;;;;;;;137287;1270;22536;-83
2024/03/14 09:47:33;;;;;;;;;;;;;;;;;;137577;1270;23325;-82
2024/03/14 09:50:35;;;;;;;;;;;;;;;;;;137802;1270;22314;-81
2024/03/14 09:53:37;;;;;;;;;;;;;;;;;;137843;1270;22320;-81
2024/03/14 09:56:38;;;;;;;;;;;;;;;;;;137711;1270;22495;-81
2024/03/14 09:59:40;;;;;;;;;;;;;;;;;;137031;1270;22551;-83
2024/03/14 10:02:42;;;;;;;;;;;;;;;;;;137530;1270;22518;-84
2024/03/14 10:05:43;;;;;;;;;;;;;;;;;;137552;1270;22507;-83
2024/03/14 10:08:47;;;;;;;;;;;;;;;;;;137807;1270;22324;-83
2024/03/14 10:11:50;;;;;;;;;;;;;;;;;;137831;1270;22321;-81
2024/03/14 10:14:51;;;;;;;;;;;;;;;;;;137867;1270;22358;-80
2024/03/14 10:17:52;;;;;;;;;;;;;;;;;;137772;1270;22475;-80
2024/03/14 10:20:53;;;;;;;;;;;;;;;;;;137789;1270;22315;-80
2024/03/14 10:23:54;;;;;;;;;;;;;;;;;;137779;1270;23100;-77
2024/03/14 10:26:56;;;;;;;;;;;;;;;;;;137843;1270;22921;-80
2024/03/14 10:29:57;;;;;;;;;;;;;;;;;;137812;1270;22349;-79
2024/03/14 10:32:59;;;;;;;;;;;;;;;;;;137800;1270;22357;-78
2024/03/14 10:36:00;;;;;;;;;;;;;;;;;;137870;1270;22336;-80
2024/03/14 10:39:01;;;;;;;;;;;;;;;;;;137406;1267;22773;-79
2024/03/14 10:42:03;;;;;;;;;;;;;;;;;;137775;1270;22558;-78
2024/03/14 10:45:05;;;;;;;;;;;;;;;;;;137354;1270;22480;-80
2024/03/14 10:48:07;;;;;;;;;;;;;;;;;;137239;1262;22539;-80
2024/03/14 10:51:08;;;;;;;;;;;;;;;;;;137822;1270;22477;-80
2024/03/14 10:54:11;;;;;;;;;;;;;;;;;;137914;1270;22332;-80
2024/03/14 10:57:13;;;;;;;;;;;;;;;;;;137900;1270;22319;-81
2024/03/14 11:00:14;;;;;;;;;;;;;;;;;;137894;1270;22956;-81
2024/03/14 11:03:17;;;;;;;;;;;;;;;;;;137877;1270;22282;-79
2024/03/14 11:06:18;;;;;;;;;;;;;;;;;;137585;1270;22525;-80
2024/03/14 11:09:20;;;;;;;;;;;;;;;;;;137887;1270;22372;-79
2024/03/14 11:12:23;;;;;;;;;;;;;;;;;;137971;1270;22298;-81
2024/03/14 11:15:24;;;;;;;;;;;;;;;;;;137930;1270;22294;-81
2024/03/14 11:18:25;;;;;;;;;;;;;;;;;;137932;1270;22661;-82
2024/03/14 11:21:31;;;;;;;;;;;;;;;;;;137302;1270;22508;-80
2024/03/14 11:24:32;;;;;;;;;;;;;;;;;;137319;1264;22554;-81
2024/03/14 11:27:37;;;;;;;;;;;;;;;;;;137776;1270;22934;-80
2024/03/14 11:30:42;;;;;;;;;;;;;;;;;;137867;1270;22840;-79
2024/03/14 11:33:45;;;;;;;;;;;;;;;;;;137951;1259;22264;-79
2024/03/14 11:36:48;;;;;;;;;;;;;;;;;;137920;1270;22330;-80
2024/03/14 11:39:50;;;;;;;;;;;;;;;;;;137669;1270;22482;-79
2024/03/14 11:42:51;;;;;;;;;;;;;;;;;;137914;1270;22316;-72
2024/03/14 11:45:52;;;;;;;;;;;;;;;;;;137854;1270;22375;-77
2024/03/14 11:48:54;;;;;;;;;;;;;;;;;;137867;1270;22337;-80
2024/03/14 11:51:56;;;;;;;;;;;;;;;;;;137114;1270;22552;-80
2024/03/14 11:54:57;;;;;;;;;;;;;;;;;;137974;1270;22328;-80
2024/03/14 11:57:58;;;;;;;;;;;;;;;;;;137831;1270;22318;-80
2024/03/14 12:01:00;;;;;;;;;;;;;;;;;;137842;1270;22538;-78
2024/03/14 12:04:01;;;;;;;;;;;;;;;;;;137891;1262;22279;-79
2024/03/14 12:07:03;;;;;;;;;;;;;;;;;;137857;1270;22788;-79
2024/03/14 12:10:04;;;;;;;;;;;;;;;;;;137894;1270;22865;-78
2024/03/14 12:13:05;;;;;;;;;;;;;;;;;;137926;1270;22339;-79
2024/03/14 12:16:07;;;;;;;;;;;;;;;;;;137921;1270;22891;-81
2024/03/14 12:19:09;;;;;;;;;;;;;;;;;;137894;1270;22315;-80
2024/03/14 12:22:28;;;;;;;;;;;;;;;;;;137329;1276;22428;-79
2024/03/14 12:25:32;;;;;;;;;;;;;;;;;;137336;1276;22436;-79
2024/03/14 12:28:34;;;;;;;;;;;;;;;;;;137316;1276;22512;-79
2024/03/14 12:31:35;;;;;;;;;;;;;;;;;;137344;1276;22553;-81
2024/03/14 12:34:36;;;;;;;;;;;;;;;;;;137334;1276;22417;-79
2024/03/14 12:37:37;;;;;;;;;;;;;;;;;;137317;1276;22304;-78
2024/03/14 12:40:39;;;;;;;;;;;;;;;;;;137302;1276;22844;-81
2024/03/14 12:43:40;;;;;;;;;;;;;;;;;;137263;1276;22542;-79
2024/03/14 12:46:41;;;;;;;;;;;;;;;;;;137135;1276;22494;-80
2024/03/14 12:49:42;;;;;;;;;;;;;;;;;;136521;1261;22577;-77
2024/03/14 12:52:45;;;;;;;;;;;;;;;;;;137205;1276;22387;-79
2024/03/14 12:55:46;;;;;;;;;;;;;;;;;;137220;1276;22469;-76
2024/03/14 12:58:47;;;;;;;;;;;;;;;;;;137234;1276;22493;-77
2024/03/14 13:01:48;;;;;;;;;;;;;;;;;;137311;1276;23192;-78
2024/03/14 13:04:50;;;;;;;;;;;;;;;;;;137380;1270;22895;-79
2024/03/14 13:07:51;;;;;;;;;;;;;;;;;;137871;1270;22319;-79
2024/03/14 13:10:55;;;;;;;;;;;;;;;;;;137857;1270;22325;-80
2024/03/14 13:13:56;;;;;;;;;;;;;;;;;;137852;1270;22317;-81
2024/03/14 13:17:04;;;;;;;;;;;;;;;;;;137866;1262;22418;-80
2024/03/14 13:20:06;;;;;;;;;;;;;;;;;;137847;1270;22317;-81
2024/03/14 13:23:07;;;;;;;;;;;;;;;;;;137804;1270;22671;-80
2024/03/14 13:26:12;;;;;;;;;;;;;;;;;;137798;1270;22284;-81
2024/03/14 13:29:13;;;;;;;;;;;;;;;;;;137856;1270;22433;-81
2024/03/14 13:32:14;;;;;;;;;;;;;;;;;;137889;1270;22380;-81
2024/03/14 13:35:21;;;;;;;;;;;;;;;;;;137823;1270;22756;-81
2024/03/14 13:38:25;;;;;;;;;;;;;;;;;;137897;1270;22341;-82
2024/03/14 13:41:30;;;;;;;;;;;;;;;;;;137863;1270;22290;-80
2024/03/14 13:44:33;;;;;;;;;;;;;;;;;;137787;1270;22326;-79
2024/03/14 13:47:35;;;;;;;;;;;;;;;;;;137884;1270;22384;-78
2024/03/14 13:50:36;;;;;;;;;;;;;;;;;;137911;1270;22366;-80
2024/03/14 13:53:39;;;;;;;;;;;;;;;;;;137916;1270;22297;-80
2024/03/14 13:56:43;;;;;;;;;;;;;;;;;;137903;1270;22286;-78
2024/03/14 13:59:46;;;;;;;;;;;;;;;;;;137873;1270;22397;-78
2024/03/14 14:02:47;;;;;;;;;;;;;;;;;;137869;1270;22466;-78
2024/03/14 14:05:49;;;;;;;;;;;;;;;;;;137993;1270;22333;-79
2024/03/14 14:08:50;;;;;;;;;;;;;;;;;;137806;1270;22483;-80
2024/03/14 14:11:52;;;;;;;;;;;;;;;;;;137936;1270;22357;-78
2024/03/14 14:14:53;;;;;;;;;;;;;;;;;;137326;1270;22535;-80
2024/03/14 14:17:56;;;;;;;;;;;;;;;;;;137218;1270;22510;-81
2024/03/14 14:20:57;;;;;;;;;;;;;;;;;;137929;1270;22299;-80
2024/03/14 14:23:58;;;;;;;;;;;;;;;;;;137678;1270;313944;-80
2024/03/14 14:27:00;;;;;;;;;;;;;;;;;;137926;1270;22418;-79
2024/03/14 14:30:01;;;;;;;;;;;;;;;;;;137863;1270;22867;-79
2024/03/14 14:33:03;;;;;;;;;;;;;;;;;;137712;1270;22985;-79
2024/03/14 14:36:06;;;;;;;;;;;;;;;;;;137480;1270;22572;-80
2024/03/14 14:39:09;;;;;;;;;;;;;;;;;;137891;1266;22819;-81
2024/03/14 14:42:13;;;;;;;;;;;;;;;;;;137779;1266;22308;-82
2024/03/14 14:45:16;;;;;;;;;;;;;;;;;;137243;1270;22528;-80
2024/03/14 14:48:18;;;;;;;;;;;;;;;;;;137662;1270;25256;-82
2024/03/14 14:51:19;;;;;;;;;;;;;;;;;;137687;1270;22496;-81
2024/03/14 14:54:21;;;;;;;;;;;;;;;;;;137483;1270;22493;-81
2024/03/14 14:57:24;;;;;;;;;;;;;;;;;;137562;1270;22517;-81
2024/03/14 15:00:26;;;;;;;;;;;;;;;;;;137913;1270;22516;-79
2024/03/14 15:03:27;;;;;;;;;;;;;;;;;;138026;1270;22339;-79
2024/03/14 15:06:28;;;;;;;;;;;;;;;;;;138016;1270;22430;-79
2024/03/14 15:09:30;;;;;;;;;;;;;;;;;;138047;1270;22311;-80
2024/03/14 15:12:31;;;;;;;;;;;;;;;;;;137828;1270;22525;-80
2024/03/14 15:15:32;;;;;;;;;;;;;;;;;;137975;1270;22289;-79
2024/03/14 15:18:33;;;;;;;;;;;;;;;;;;137807;1266;23039;-79
2024/03/14 15:21:34;;;;;;;;;;;;;;;;;;137579;1270;22568;-81
2024/03/14 15:24:36;;;;;;;;;;;;;;;;;;137346;1270;22489;-81
2024/03/14 15:27:37;;;;;;;;;;;;;;;;;;137917;1270;22279;-81
2024/03/14 15:30:38;;;;;;;;;;;;;;;;;;137864;1270;22343;-81
2024/03/14 15:33:40;;;;;;;;;;;;;;;;;;137483;1270;22666;-82
2024/03/14 15:36:41;;;;;;;;;;;;;;;;;;137870;1270;22347;-82
2024/03/14 15:39:42;;;;;;;;;;;;;;;;;;137856;1270;22503;-81
2024/03/14 15:42:43;;;;;;;;;;;;;;;;;;137500;1270;22531;-82
2024/03/14 15:45:45;;;;;;;;;;;;;;;;;;137103;1270;22639;-82
2024/03/14 15:48:46;;;;;;;;;;;;;;;;;;137774;1270;22513;-83
2024/03/14 15:51:47;;;;;;;;;;;;;;;;;;137359;1270;23010;-83
2024/03/14 15:54:49;;;;;;;;;;;;;;;;;;137393;1270;22993;-83
2024/03/14 15:57:50;;;;;;;;;;;;;;;;;;137731;1270;22538;-82
2024/03/14 16:00:52;;;;;;;;;;;;;;;;;;137559;1270;22523;-83
2024/03/14 16:03:53;;;;;;;;;;;;;;;;;;137394;1270;22588;-83
2024/03/14 16:06:54;;;;;;;;;;;;;;;;;;137619;1270;25261;-80
2024/03/14 16:09:55;;;;;;;;;;;;;;;;;;137603;1270;22493;-81
2024/03/14 16:12:57;;;;;;;;;;;;;;;;;;137139;1270;22645;-81
2024/03/14 16:15:59;;;;;;;;;;;;;;;;;;137455;1270;22554;-81
2024/03/14 16:19:04;;;;;;;;;;;;;;;;;;137816;1270;22524;-80
2024/03/14 16:22:05;;;;;;;;;;;;;;;;;;137183;1270;22476;-81
2024/03/14 16:25:08;;;;;;;;;;;;;;;;;;137298;1270;22541;-81
2024/03/14 16:28:09;;;;;;;;;;;;;;;;;;137717;1270;22486;-76
2024/03/14 16:31:10;;;;;;;;;;;;;;;;;;137786;1270;23609;-76
2024/03/14 16:34:12;;;;;;;;;;;;;;;;;;137789;1270;22366;-76
2024/03/14 16:37:13;;;;;;;;;;;;;;;;;;137908;1270;22314;-76
2024/03/14 16:40:17;;;;;;;;;;;;;;;;;;137846;1270;22368;-76
2024/03/14 16:43:18;;;;;;;;;;;;;;;;;;137762;1270;23014;-77
2024/03/14 16:46:21;;;;;;;;;;;;;;;;;;137861;1270;22336;-76
2024/03/14 16:49:22;;;;;;;;;;;;;;;;;;137851;1270;22367;-77
2024/03/14 16:52:23;;;;;;;;;;;;;;;;;;137824;1270;22343;-77
2024/03/14 16:55:24;;;;;;;;;;;;;;;;;;137172;1270;22542;-76
2024/03/14 16:58:29;;;;;;;;;;;;;;;;;;137796;1270;22501;-77
2024/03/14 17:01:30;;;;;;;;;;;;;;;;;;137248;1270;22525;-76
2024/03/14 17:04:32;;;;;;;;;;;;;;;;;;137027;1270;22534;-76
2024/03/14 17:07:33;;;;;;;;;;;;;;;;;;137778;1266;22880;-80
2024/03/14 17:10:35;;;;;;;;;;;;;;;;;;137532;1270;22939;-79
2024/03/14 17:13:36;;;;;;;;;;;;;;;;;;137886;1270;22341;-80
2024/03/14 17:16:38;;;;;;;;;;;;;;;;;;137491;1270;22456;-82
2024/03/14 17:19:39;;;;;;;;;;;;;;;;;;137836;1266;22489;-82
2024/03/14 17:22:41;;;;;;;;;;;;;;;;;;137948;1270;22290;-82
2024/03/14 17:25:42;;;;;;;;;;;;;;;;;;137463;1270;22499;-81
2024/03/14 17:28:43;;;;;;;;;;;;;;;;;;137909;1270;22440;-81
2024/03/14 17:31:45;;;;;;;;;;;;;;;;;;137650;1270;22495;-81
2024/03/14 17:34:46;;;;;;;;;;;;;;;;;;137535;1270;22606;-82
2024/03/14 17:37:47;;;;;;;;;;;;;;;;;;137901;1270;22496;-82
2024/03/14 17:40:48;;;;;;;;;;;;;;;;;;137849;1270;22635;-82
2024/03/14 17:43:49;;;;;;;;;;;;;;;;;;137849;1270;22793;-82
2024/03/14 17:46:52;;;;;;;;;;;;;;;;;;137640;1271;22969;-82
2024/03/14 17:49:59;;;;;;;;;;;;;;;;;;137761;1270;22499;-82
2024/03/14 17:53:00;;;;;;;;;;;;;;;;;;137342;1263;22602;-82
2024/03/14 17:56:03;;;;;;;;;;;;;;;;;;137858;1270;22331;-80
2024/03/14 17:59:10;;;;;;;;;;;;;;;;;;137508;1270;22502;-81
2024/03/14 18:02:11;;;;;;;;;;;;;;;;;;137658;1270;22511;-81
2024/03/14 18:05:12;;;;;;;;;;;;;;;;;;137872;1270;22315;-80
2024/03/14 18:08:14;;;;;;;;;;;;;;;;;;137795;1270;23273;-80
2024/03/14 18:11:15;;;;;;;;;;;;;;;;;;136776;1270;22503;-80
2024/03/14 18:14:18;;;;;;;;;;;;;;;;;;137435;1270;22720;-79
2024/03/14 18:17:20;;;;;;;;;;;;;;;;;;137823;1270;22493;-81
2024/03/14 18:20:21;;;;;;;;;;;;;;;;;;137394;1271;22487;-79
2024/03/14 18:23:22;;;;;;;;;;;;;;;;;;137502;1270;22532;-79
2024/03/14 18:26:23;;;;;;;;;;;;;;;;;;137707;1270;22501;-80
2024/03/14 18:29:24;;;;;;;;;;;;;;;;;;137664;1270;22482;-78
2024/03/14 18:32:26;;;;;;;;;;;;;;;;;;137562;1271;22565;-80
2024/03/14 18:35:27;;;;;;;;;;;;;;;;;;137511;1271;22610;-78
2024/03/14 18:38:31;;;;;;;;;;;;;;;;;;137586;1270;22617;-79
2024/03/14 18:41:32;;;;;;;;;;;;;;;;;;137437;1270;22552;-81
2024/03/14 18:44:42;;;;;;;;;;;;;;;;;;137623;1270;22468;-79
2024/03/14 18:47:44;;;;;;;;;;;;;;;;;;137858;1270;22978;-79
2024/03/14 18:50:45;;;;;;;;;;;;;;;;;;137864;1270;22513;-79
2024/03/14 18:53:46;;;;;;;;;;;;;;;;;;137401;1270;22525;-80
2024/03/14 18:56:49;;;;;;;;;;;;;;;;;;137941;1270;22506;-80
2024/03/14 18:59:50;;;;;;;;;;;;;;;;;;137451;1270;22497;-81
2024/03/14 19:02:52;;;;;;;;;;;;;;;;;;137281;1271;22546;-79
2024/03/14 19:05:53;;;;;;;;;;;;;;;;;;137566;1270;23610;-81
2024/03/14 19:08:54;;;;;;;;;;;;;;;;;;137555;1271;22517;-81
2024/03/14 19:11:55;;;;;;;;;;;;;;;;;;137413;1271;22536;-80
2024/03/14 19:14:56;;;;;;;;;;;;;;;;;;137597;1271;22523;-80
2024/03/14 19:18:00;;;;;;;;;;;;;;;;;;137571;1270;22487;-80
2024/03/14 19:21:01;;;;;;;;;;;;;;;;;;137378;1270;22987;-80
2024/03/14 19:24:04;;;;;;;;;;;;;;;;;;137263;1270;22484;-80
2024/03/14 19:27:05;;;;;;;;;;;;;;;;;;137872;1270;22495;-80
2024/03/14 19:30:08;;;;;;;;;;;;;;;;;;137228;1270;22581;-79
2024/03/14 19:33:10;;;;;;;;;;;;;;;;;;136997;1271;24960;-80
2024/03/14 19:36:11;;;;;;;;;;;;;;;;;;137931;1271;22641;-80
2024/03/14 19:39:15;;;;;;;;;;;;;;;;;;137430;1271;22547;-81
2024/03/14 19:42:17;;;;;;;;;;;;;;;;;;137375;1270;22483;-79
2024/03/14 19:45:20;;;;;;;;;;;;;;;;;;137800;1271;25387;-80
2024/03/14 19:48:21;;;;;;;;;;;;;;;;;;137612;1270;22971;-81
2024/03/14 19:51:23;;;;;;;;;;;;;;;;;;137489;1271;22474;-80
2024/03/14 19:54:24;;;;;;;;;;;;;;;;;;137720;1270;25914;-79
2024/03/14 19:57:25;;;;;;;;;;;;;;;;;;137708;1271;22524;-80
2024/03/14 20:00:26;;;;;;;;;;;;;;;;;;137979;1271;23037;-81
2024/03/14 20:03:27;;;;;;;;;;;;;;;;;;137620;1270;22520;-79
2024/03/14 20:06:28;;;;;;;;;;;;;;;;;;137866;1270;22644;-80
2024/03/14 20:09:29;;;;;;;;;;;;;;;;;;137473;1271;22490;-80
2024/03/14 20:12:30;;;;;;;;;;;;;;;;;;137553;1270;22539;-80
2024/03/14 20:15:31;;;;;;;;;;;;;;;;;;138018;1271;22318;-80
2024/03/14 20:18:32;;;;;;;;;;;;;;;;;;137284;1271;22904;-80
2024/03/14 20:21:35;;;;;;;;;;;;;;;;;;137586;1270;23005;-80